Time;durP1;ratioP1;P1;durP2;ratioP2;P2;SDS_P1;SDS_P2;PMS_P1;PMS_P2;Temp;Humidity;BMP_temperature;BMP_pressure;BME280_temperature;BME280_humidity;BME280_pressure;Samples;Min_cycle;Max_cycle;Signal;HPM_P1;HPM_P2
2021/06/16 00:00:53;;;;;;;0.20;0.20;;;;;;;;;;5073340;28;20448;-63
2021/06/16 00:03:19;;;;;;;0.20;0.20;;;;;;;;;;5073246;28;20421;-62
2021/06/16 00:05:45;;;;;;;0.20;0.20;;;;;;;;;;5073018;28;20528;-64
2021/06/16 00:08:11;;;;;;;0.20;0.20;;;;;;;;;;5073198;28;20909;-64
2021/06/16 00:10:37;;;;;;;0.20;0.20;;;;;;;;;;5073193;28;20462;-63
2021/06/16 00:13:04;;;;;;;0.20;0.20;;;;;;;;;;5073309;28;20443;-63
2021/06/16 00:15:35;;;;;;;0.20;0.20;;;;;;;;;;5055378;28;20436;-63
2021/06/16 00:18:01;;;;;;;0.20;0.20;;;;;;;;;;5057083;28;20924;-63
2021/06/16 00:20:27;;;;;;;0.20;0.20;;;;;;;;;;5072566;28;20811;-63
2021/06/16 00:22:54;;;;;;;0.20;0.20;;;;;;;;;;5073013;28;20426;-63
2021/06/16 00:25:20;;;;;;;0.20;0.20;;;;;;;;;;5072860;28;20426;-63
2021/06/16 00:27:46;;;;;;;0.20;0.20;;;;;;;;;;5072731;28;20413;-63
2021/06/16 00:30:12;;;;;;;0.20;0.20;;;;;;;;;;5073186;28;20524;-63
2021/06/16 00:32:39;;;;;;;0.20;0.20;;;;;;;;;;5073110;28;20425;-62
2021/06/16 00:35:05;;;;;;;0.20;0.20;;;;;;;;;;5073080;28;20420;-62
2021/06/16 00:37:33;;;;;;;0.20;0.20;;;;;;;;;;5072744;28;20771;-62
2021/06/16 00:40:00;;;;;;;0.20;0.20;;;;;;;;;;5072355;28;20425;-62
2021/06/16 00:42:26;;;;;;;0.20;0.20;;;;;;;;;;5072138;28;20424;-62
2021/06/16 00:44:52;;;;;;;0.20;0.20;;;;;;;;;;5072901;28;20421;-62
2021/06/16 00:47:18;;;;;;;0.30;0.30;;;;;;;;;;5072506;28;20461;-62
2021/06/16 00:49:44;;;;;;;0.20;0.20;;;;;;;;;;5071960;28;20910;-62
2021/06/16 00:52:10;;;;;;;0.20;0.20;;;;;;;;;;5073219;28;20416;-63
2021/06/16 00:54:36;;;;;;;0.30;0.30;;;;;;;;;;5071892;28;20416;-63
2021/06/16 00:57:03;;;;;;;0.20;0.20;;;;;;;;;;5072224;28;20459;-63
2021/06/16 00:59:35;;;;;;;0.20;0.20;;;;;;;;;;5072019;28;20452;-63
2021/06/16 01:02:01;;;;;;;0.20;0.20;;;;;;;;;;5072080;28;20551;-63
2021/06/16 01:04:29;;;;;;;0.20;0.20;;;;;;;;;;5072307;28;20412;-63
2021/06/16 01:06:57;;;;;;;0.20;0.20;;;;;;;;;;5071731;28;20922;-63
2021/06/16 01:09:23;;;;;;;0.30;0.30;;;;;;;;;;5072202;28;20405;-63
2021/06/16 01:11:49;;;;;;;0.20;0.20;;;;;;;;;;5071642;28;20818;-63
2021/06/16 01:14:19;;;;;;;0.20;0.20;;;;;;;;;;5071787;28;20437;-63
2021/06/16 01:16:49;;;;;;;0.20;0.20;;;;;;;;;;5071717;28;20482;-63
2021/06/16 01:19:21;;;;;;;0.20;0.20;;;;;;;;;;5071514;28;20423;-63
2021/06/16 01:21:49;;;;;;;0.20;0.20;;;;;;;;;;5071858;28;20438;-63
2021/06/16 01:24:18;;;;;;;0.20;0.20;;;;;;;;;;5071169;28;20525;-63
2021/06/16 01:26:45;;;;;;;0.20;0.20;;;;;;;;;;5071804;28;20560;-63
2021/06/16 01:29:16;;;;;;;0.20;0.20;;;;;;;;;;5071438;28;20475;-63
2021/06/16 01:31:43;;;;;;;0.20;0.20;;;;;;;;;;5071622;28;20424;-63
2021/06/16 01:34:10;;;;;;;0.20;0.20;;;;;;;;;;5071420;28;20806;-63
2021/06/16 01:36:38;;;;;;;0.20;0.20;;;;;;;;;;5071173;28;20396;-63
2021/06/16 01:39:08;;;;;;;0.20;0.20;;;;;;;;;;5071203;28;20422;-63
2021/06/16 01:41:35;;;;;;;0.20;0.20;;;;;;;;;;5071261;28;20482;-63
2021/06/16 01:44:01;;;;;;;0.20;0.20;;;;;;;;;;5071353;28;20498;-63
2021/06/16 01:46:27;;;;;;;0.30;0.30;;;;;;;;;;5071657;28;20483;-63
2021/06/16 01:48:53;;;;;;;0.20;0.20;;;;;;;;;;5071164;28;20924;-63
2021/06/16 01:51:20;;;;;;;0.20;0.20;;;;;;;;;;5071531;28;20504;-63
2021/06/16 01:53:47;;;;;;;0.30;0.30;;;;;;;;;;5053360;28;20403;-63
2021/06/16 01:56:13;;;;;;;0.27;0.27;;;;;;;;;;5071331;28;20514;-63
2021/06/16 01:58:39;;;;;;;0.20;0.20;;;;;;;;;;5071215;28;20449;-63
2021/06/16 02:01:09;;;;;;;0.20;0.20;;;;;;;;;;5071168;28;20428;-62
2021/06/16 02:03:35;;;;;;;0.20;0.20;;;;;;;;;;5071359;28;20950;-63
2021/06/16 02:06:01;;;;;;;0.20;0.20;;;;;;;;;;5071096;28;20504;-63
2021/06/16 02:08:29;;;;;;;0.20;0.20;;;;;;;;;;5071112;28;20832;-62
2021/06/16 02:10:55;;;;;;;0.20;0.20;;;;;;;;;;5071033;28;20819;-63
2021/06/16 02:13:41;;;;;;;0.20;0.20;;;;;;;;;;5070999;28;20513;-63
2021/06/16 02:16:09;;;;;;;0.30;0.30;;;;;;;;;;5071038;28;20436;-63
2021/06/16 02:18:40;;;;;;;0.20;0.20;;;;;;;;;;5071162;28;20405;-63
2021/06/16 02:21:06;;;;;;;0.20;0.20;;;;;;;;;;5071123;28;20428;-63
2021/06/16 02:23:32;;;;;;;0.20;0.20;;;;;;;;;;5071326;28;20439;-63
2021/06/16 02:25:58;;;;;;;0.20;0.20;;;;;;;;;;5071056;28;20514;-63
2021/06/16 02:28:24;;;;;;;0.30;0.30;;;;;;;;;;5052854;28;20421;-63
2021/06/16 02:30:50;;;;;;;0.20;0.20;;;;;;;;;;5070707;28;20420;-63
2021/06/16 02:33:16;;;;;;;0.20;0.20;;;;;;;;;;5071071;28;20446;-63
2021/06/16 02:35:42;;;;;;;0.20;0.20;;;;;;;;;;5070957;28;20421;-63
2021/06/16 02:38:11;;;;;;;0.20;0.20;;;;;;;;;;5071092;28;20753;-63
2021/06/16 02:40:37;;;;;;;0.20;0.20;;;;;;;;;;5071069;28;20447;-63
2021/06/16 02:43:04;;;;;;;0.23;0.23;;;;;;;;;;5071179;28;20437;-62
2021/06/16 02:45:30;;;;;;;0.20;0.20;;;;;;;;;;5074723;28;20444;-63
2021/06/16 02:47:58;;;;;;;0.30;0.30;;;;;;;;;;5074693;28;20431;-63
2021/06/16 02:50:26;;;;;;;0.20;0.20;;;;;;;;;;5074742;28;20958;-63
2021/06/16 02:52:53;;;;;;;0.23;0.23;;;;;;;;;;5074581;28;20444;-63
2021/06/16 02:55:19;;;;;;;0.20;0.20;;;;;;;;;;5074443;28;21183;-63
2021/06/16 02:57:46;;;;;;;0.20;0.20;;;;;;;;;;5074448;28;20421;-62
2021/06/16 03:00:13;;;;;;;0.30;0.30;;;;;;;;;;5074141;28;20417;-62
2021/06/16 03:02:42;;;;;;;0.20;0.20;;;;;;;;;;5074186;28;20810;-63
2021/06/16 03:05:09;;;;;;;0.20;0.20;;;;;;;;;;5074525;28;20417;-63
2021/06/16 03:07:36;;;;;;;0.30;0.30;;;;;;;;;;5074424;28;20888;-63
2021/06/16 03:10:02;;;;;;;0.20;0.20;;;;;;;;;;5074295;28;20457;-62
2021/06/16 03:12:28;;;;;;;0.20;0.20;;;;;;;;;;5073911;28;20882;-62
2021/06/16 03:14:54;;;;;;;0.20;0.20;;;;;;;;;;5074108;28;20773;-62
2021/06/16 03:17:21;;;;;;;0.20;0.20;;;;;;;;;;5074109;28;20453;-62
2021/06/16 03:19:48;;;;;;;0.30;0.30;;;;;;;;;;5073940;28;20432;-62
2021/06/16 03:22:14;;;;;;;0.20;0.20;;;;;;;;;;5074320;28;20459;-63
2021/06/16 03:24:42;;;;;;;0.20;0.20;;;;;;;;;;5074023;28;20449;-62
2021/06/16 03:27:08;;;;;;;0.30;0.30;;;;;;;;;;5073828;28;20460;-62
2021/06/16 03:29:35;;;;;;;0.30;0.30;;;;;;;;;;5073943;28;20487;-62
2021/06/16 03:32:01;;;;;;;0.30;0.30;;;;;;;;;;5073771;28;20912;-62
2021/06/16 03:34:28;;;;;;;0.30;0.30;;;;;;;;;;5073463;28;20491;-62
2021/06/16 03:36:54;;;;;;;0.20;0.20;;;;;;;;;;5073164;28;20425;-62
2021/06/16 03:39:20;;;;;;;0.30;0.30;;;;;;;;;;5073500;28;20429;-62
2021/06/16 03:41:48;;;;;;;0.30;0.30;;;;;;;;;;5073743;28;20493;-63
2021/06/16 03:44:14;;;;;;;0.20;0.20;;;;;;;;;;5073797;28;20437;-62
2021/06/16 03:46:40;;;;;;;0.20;0.20;;;;;;;;;;5073567;28;20864;-63
2021/06/16 03:49:10;;;;;;;0.30;0.30;;;;;;;;;;5074737;28;20413;-63
2021/06/16 03:51:37;;;;;;;0.20;0.20;;;;;;;;;;5075534;28;20746;-63
2021/06/16 03:54:11;;;;;;;0.30;0.30;;;;;;;;;;5074622;28;20448;-63
2021/06/16 03:56:38;;;;;;;0.30;0.30;;;;;;;;;;5074223;28;20413;-63
2021/06/16 03:59:04;;;;;;;0.20;0.20;;;;;;;;;;5056219;28;20421;-63
2021/06/16 04:01:30;;;;;;;0.30;0.30;;;;;;;;;;5074382;28;20428;-63
2021/06/16 04:03:56;;;;;;;0.30;0.30;;;;;;;;;;5073535;28;20441;-63
2021/06/16 04:06:23;;;;;;;0.20;0.20;;;;;;;;;;5073282;28;20828;-63
2021/06/16 04:08:50;;;;;;;0.30;0.30;;;;;;;;;;5072782;28;20426;-63
2021/06/16 04:11:16;;;;;;;0.30;0.30;;;;;;;;;;5072993;28;20991;-63
2021/06/16 04:13:42;;;;;;;0.20;0.20;;;;;;;;;;5073036;28;20421;-63
2021/06/16 04:16:09;;;;;;;0.30;0.30;;;;;;;;;;5073257;28;20411;-63
2021/06/16 04:18:38;;;;;;;0.20;0.20;;;;;;;;;;5072749;28;20421;-63
2021/06/16 04:21:04;;;;;;;0.30;0.30;;;;;;;;;;5072980;28;20427;-63
2021/06/16 04:23:30;;;;;;;0.20;0.20;;;;;;;;;;5073124;28;20432;-63
2021/06/16 04:25:56;;;;;;;0.30;0.30;;;;;;;;;;5072765;28;20457;-63
2021/06/16 04:28:22;;;;;;;0.20;0.20;;;;;;;;;;5072840;28;20440;-63
2021/06/16 04:30:48;;;;;;;0.20;0.20;;;;;;;;;;5072846;28;20429;-63
2021/06/16 04:33:14;;;;;;;0.20;0.20;;;;;;;;;;5072698;28;20445;-63
2021/06/16 04:35:40;;;;;;;0.20;0.20;;;;;;;;;;5072780;28;20424;-63
2021/06/16 04:38:06;;;;;;;0.20;0.20;;;;;;;;;;5072763;28;20416;-63
2021/06/16 04:40:32;;;;;;;0.20;0.20;;;;;;;;;;5072660;28;20409;-62
2021/06/16 04:42:58;;;;;;;0.30;0.30;;;;;;;;;;5072725;28;20425;-63
2021/06/16 04:45:25;;;;;;;0.20;0.20;;;;;;;;;;5072608;28;20420;-63
2021/06/16 04:47:51;;;;;;;0.30;0.30;;;;;;;;;;5072633;28;20386;-63
2021/06/16 04:50:17;;;;;;;0.20;0.20;;;;;;;;;;5072480;28;20433;-63
2021/06/16 04:52:43;;;;;;;0.20;0.20;;;;;;;;;;5072547;28;20430;-63
2021/06/16 04:55:10;;;;;;;0.20;0.20;;;;;;;;;;5072496;28;20401;-63
2021/06/16 04:57:36;;;;;;;0.20;0.20;;;;;;;;;;5072531;28;20777;-63
2021/06/16 05:00:04;;;;;;;0.20;0.20;;;;;;;;;;5072241;28;20440;-63
2021/06/16 05:02:30;;;;;;;0.20;0.20;;;;;;;;;;5072304;28;20896;-62
2021/06/16 05:04:56;;;;;;;0.20;0.20;;;;;;;;;;5072190;28;20436;-63
2021/06/16 05:07:22;;;;;;;0.30;0.30;;;;;;;;;;5071404;28;20468;-63
2021/06/16 05:09:48;;;;;;;0.20;0.20;;;;;;;;;;5072059;28;20447;-63
2021/06/16 05:12:14;;;;;;;0.20;0.20;;;;;;;;;;5072082;28;20391;-63
2021/06/16 05:14:40;;;;;;;0.20;0.20;;;;;;;;;;5071954;28;20437;-63
2021/06/16 05:17:06;;;;;;;0.20;0.20;;;;;;;;;;5071447;28;20916;-63
2021/06/16 05:19:33;;;;;;;0.20;0.20;;;;;;;;;;5071669;28;20424;-63
2021/06/16 05:22:04;;;;;;;0.20;0.20;;;;;;;;;;5072256;28;20424;-63
2021/06/16 05:24:30;;;;;;;0.30;0.30;;;;;;;;;;5070108;28;20446;-63
2021/06/16 05:26:56;;;;;;;0.20;0.20;;;;;;;;;;5070935;28;21254;-62
2021/06/16 05:29:22;;;;;;;0.20;0.20;;;;;;;;;;5070862;28;20423;-62
2021/06/16 05:31:48;;;;;;;0.20;0.20;;;;;;;;;;5070695;28;20396;-62
2021/06/16 05:34:14;;;;;;;0.30;0.30;;;;;;;;;;5072227;28;20453;-62
2021/06/16 05:36:40;;;;;;;0.20;0.20;;;;;;;;;;5070651;28;20444;-62
2021/06/16 05:39:06;;;;;;;0.20;0.20;;;;;;;;;;5070938;28;20429;-62
2021/06/16 05:41:32;;;;;;;0.20;0.20;;;;;;;;;;5071134;28;20766;-62
2021/06/16 05:43:58;;;;;;;0.30;0.30;;;;;;;;;;5071367;28;20444;-62
2021/06/16 05:46:24;;;;;;;0.20;0.20;;;;;;;;;;5070450;28;20502;-62
2021/06/16 05:48:50;;;;;;;0.30;0.30;;;;;;;;;;5070680;28;20409;-62
2021/06/16 05:51:16;;;;;;;0.30;0.30;;;;;;;;;;5071201;28;20490;-63
2021/06/16 05:53:42;;;;;;;0.20;0.20;;;;;;;;;;5070875;28;20815;-63
2021/06/16 05:56:08;;;;;;;0.20;0.20;;;;;;;;;;5070746;28;20417;-62
2021/06/16 05:58:34;;;;;;;0.20;0.20;;;;;;;;;;5070174;28;20926;-62
2021/06/16 06:01:00;;;;;;;0.20;0.20;;;;;;;;;;5070650;28;20380;-62
2021/06/16 06:03:26;;;;;;;0.20;0.20;;;;;;;;;;5071025;28;20468;-62
2021/06/16 06:05:52;;;;;;;0.20;0.20;;;;;;;;;;5071090;28;20484;-62
2021/06/16 06:08:18;;;;;;;0.20;0.20;;;;;;;;;;5070185;28;20472;-62
2021/06/16 06:10:44;;;;;;;0.30;0.30;;;;;;;;;;5070656;28;20417;-62
2021/06/16 06:13:10;;;;;;;0.20;0.20;;;;;;;;;;5070844;28;20439;-62
2021/06/16 06:15:36;;;;;;;0.20;0.20;;;;;;;;;;5070696;28;20405;-64
2021/06/16 06:18:02;;;;;;;0.20;0.20;;;;;;;;;;5071570;28;20877;-64
2021/06/16 06:20:29;;;;;;;0.20;0.20;;;;;;;;;;5074474;28;20912;-62
2021/06/16 06:22:56;;;;;;;0.20;0.20;;;;;;;;;;5074707;28;20441;-62
2021/06/16 06:25:22;;;;;;;0.20;0.20;;;;;;;;;;5071019;28;20465;-62
2021/06/16 06:27:48;;;;;;;0.20;0.20;;;;;;;;;;5074954;28;20503;-62
2021/06/16 06:30:14;;;;;;;0.20;0.20;;;;;;;;;;5074723;28;20405;-63
2021/06/16 06:32:41;;;;;;;0.20;0.20;;;;;;;;;;5073669;28;20528;-62
2021/06/16 06:35:07;;;;;;;0.20;0.20;;;;;;;;;;5074320;28;20473;-62
2021/06/16 06:37:33;;;;;;;0.20;0.20;;;;;;;;;;5074834;28;20428;-62
2021/06/16 06:39:59;;;;;;;0.20;0.20;;;;;;;;;;5073561;28;20867;-62
2021/06/16 06:42:25;;;;;;;0.20;0.20;;;;;;;;;;5074637;28;20401;-62
2021/06/16 06:44:51;;;;;;;0.20;0.20;;;;;;;;;;5074600;28;20416;-62
2021/06/16 06:47:17;;;;;;;0.20;0.20;;;;;;;;;;5074460;28;20457;-62
2021/06/16 06:49:43;;;;;;;0.20;0.20;;;;;;;;;;5056322;28;20445;-62
2021/06/16 06:52:09;;;;;;;0.20;0.20;;;;;;;;;;5074579;28;20398;-62
2021/06/16 06:54:35;;;;;;;0.20;0.20;;;;;;;;;;5074450;28;20429;-63
2021/06/16 06:57:02;;;;;;;0.20;0.20;;;;;;;;;;5074365;28;20497;-62
2021/06/16 06:59:28;;;;;;;0.20;0.20;;;;;;;;;;5074079;28;20428;-62
2021/06/16 07:01:54;;;;;;;0.20;0.20;;;;;;;;;;5074341;28;20391;-62
2021/06/16 07:04:21;;;;;;;0.20;0.20;;;;;;;;;;5073973;28;20920;-65
2021/06/16 07:06:47;;;;;;;0.20;0.20;;;;;;;;;;5074290;28;20457;-63
2021/06/16 07:09:13;;;;;;;0.20;0.20;;;;;;;;;;5074068;28;20376;-63
2021/06/16 07:11:39;;;;;;;0.20;0.20;;;;;;;;;;5074402;28;20491;-62
2021/06/16 07:14:05;;;;;;;0.20;0.20;;;;;;;;;;5074226;28;20464;-62
2021/06/16 07:16:31;;;;;;;0.20;0.20;;;;;;;;;;5075041;28;20430;-62
2021/06/16 07:18:57;;;;;;;0.20;0.20;;;;;;;;;;5073754;28;20381;-62
2021/06/16 07:21:23;;;;;;;0.20;0.20;;;;;;;;;;5073982;28;20867;-62
2021/06/16 07:23:49;;;;;;;0.20;0.20;;;;;;;;;;5073775;28;20472;-61
2021/06/16 07:26:17;;;;;;;0.20;0.20;;;;;;;;;;5073810;28;20956;-62
2021/06/16 07:28:43;;;;;;;0.20;0.20;;;;;;;;;;5074174;28;20414;-62
2021/06/16 07:31:09;;;;;;;0.20;0.20;;;;;;;;;;5073653;28;20406;-62
2021/06/16 07:33:35;;;;;;;0.20;0.20;;;;;;;;;;5073566;28;20445;-63
2021/06/16 07:36:01;;;;;;;0.20;0.20;;;;;;;;;;5073598;28;20464;-63
2021/06/16 07:38:27;;;;;;;0.20;0.20;;;;;;;;;;5073097;28;20428;-62
2021/06/16 07:40:53;;;;;;;0.20;0.20;;;;;;;;;;5073580;28;20406;-63
2021/06/16 07:43:19;;;;;;;0.20;0.20;;;;;;;;;;5073592;28;20922;-62
2021/06/16 07:45:45;;;;;;;0.20;0.20;;;;;;;;;;5073536;28;20529;-63
2021/06/16 07:48:11;;;;;;;0.20;0.20;;;;;;;;;;5073629;28;20478;-63
2021/06/16 07:50:38;;;;;;;0.20;0.20;;;;;;;;;;5055446;28;20449;-63
2021/06/16 07:53:05;;;;;;;0.20;0.20;;;;;;;;;;5073393;28;20473;-63
2021/06/16 07:55:31;;;;;;;0.20;0.20;;;;;;;;;;5073402;28;20906;-63
2021/06/16 07:57:57;;;;;;;0.20;0.20;;;;;;;;;;5073526;28;20878;-63
2021/06/16 08:00:23;;;;;;;0.20;0.20;;;;;;;;;;5073038;28;20386;-63
2021/06/16 08:02:49;;;;;;;0.20;0.20;;;;;;;;;;5073122;28;20593;-63
2021/06/16 08:05:15;;;;;;;0.20;0.20;;;;;;;;;;5073524;28;20526;-63
2021/06/16 08:07:41;;;;;;;0.20;0.20;;;;;;;;;;5072802;28;20453;-63
2021/06/16 08:10:07;;;;;;;0.20;0.20;;;;;;;;;;5072514;28;20379;-63
2021/06/16 08:12:33;;;;;;;0.20;0.20;;;;;;;;;;5072959;28;20403;-63
2021/06/16 08:15:00;;;;;;;0.20;0.20;;;;;;;;;;5072929;28;20413;-63
2021/06/16 08:17:26;;;;;;;0.20;0.20;;;;;;;;;;5073216;28;20433;-63
2021/06/16 08:19:52;;;;;;;0.20;0.20;;;;;;;;;;5072635;28;20460;-63
2021/06/16 08:22:18;;;;;;;0.20;0.20;;;;;;;;;;5072781;28;20418;-63
2021/06/16 08:24:45;;;;;;;0.20;0.20;;;;;;;;;;5072987;28;20425;-63
2021/06/16 08:27:11;;;;;;;0.20;0.20;;;;;;;;;;5072674;28;20589;-63
2021/06/16 08:29:37;;;;;;;0.20;0.20;;;;;;;;;;5072605;28;20416;-63
2021/06/16 08:32:04;;;;;;;0.20;0.20;;;;;;;;;;5072671;28;20398;-63
2021/06/16 08:34:30;;;;;;;0.20;0.20;;;;;;;;;;5072608;28;20448;-63
2021/06/16 08:36:56;;;;;;;0.20;0.20;;;;;;;;;;5072558;28;20835;-63
2021/06/16 08:39:22;;;;;;;0.20;0.20;;;;;;;;;;5072337;28;20496;-63
2021/06/16 08:41:48;;;;;;;0.20;0.20;;;;;;;;;;5071479;28;20384;-63
2021/06/16 08:44:15;;;;;;;0.20;0.20;;;;;;;;;;5072389;28;20426;-63
2021/06/16 08:46:41;;;;;;;0.20;0.20;;;;;;;;;;5072189;28;20465;-63
2021/06/16 08:49:07;;;;;;;0.20;0.20;;;;;;;;;;5072085;28;20416;-63
2021/06/16 08:51:35;;;;;;;0.20;0.20;;;;;;;;;;5072370;28;20442;-63
2021/06/16 08:54:01;;;;;;;0.20;0.20;;;;;;;;;;5072320;28;20425;-64
2021/06/16 08:56:27;;;;;;;0.20;0.20;;;;;;;;;;5072160;28;20452;-64
2021/06/16 08:58:54;;;;;;;0.20;0.20;;;;;;;;;;5072111;28;20769;-64
2021/06/16 09:01:21;;;;;;;0.20;0.20;;;;;;;;;;5072145;28;20410;-65
2021/06/16 09:03:47;;;;;;;0.20;0.20;;;;;;;;;;5071827;28;20436;-64
2021/06/16 09:06:14;;;;;;;0.13;0.13;;;;;;;;;;5072171;28;21197;-63
2021/06/16 09:08:51;;;;;;;0.20;0.20;;;;;;;;;;5071961;28;20409;-62
2021/06/16 09:11:17;;;;;;;0.20;0.20;;;;;;;;;;5071268;28;20862;-64
2021/06/16 09:13:43;;;;;;;0.20;0.20;;;;;;;;;;5071314;28;20425;-64
2021/06/16 09:16:24;;;;;;;0.20;0.20;;;;;;;;;;5071798;28;20421;-63
2021/06/16 09:18:50;;;;;;;0.20;0.20;;;;;;;;;;5071738;28;20771;-64
2021/06/16 09:21:17;;;;;;;0.20;0.20;;;;;;;;;;5071903;28;20433;-62
2021/06/16 09:23:43;;;;;;;0.20;0.20;;;;;;;;;;5071701;28;20433;-64
2021/06/16 09:26:10;;;;;;;0.20;0.20;;;;;;;;;;5071613;28;20464;-64
2021/06/16 09:28:40;;;;;;;0.20;0.20;;;;;;;;;;5071668;28;20966;-66
2021/06/16 09:31:07;;;;;;;0.20;0.20;;;;;;;;;;5071559;28;20462;-63
2021/06/16 09:33:34;;;;;;;0.20;0.20;;;;;;;;;;5071372;28;20444;-64
2021/06/16 09:36:00;;;;;;;0.20;0.20;;;;;;;;;;5071484;28;20406;-64
2021/06/16 09:38:26;;;;;;;0.20;0.20;;;;;;;;;;5071342;28;20838;-63
2021/06/16 09:40:54;;;;;;;0.20;0.20;;;;;;;;;;5071615;28;20513;-64
2021/06/16 09:43:21;;;;;;;0.20;0.20;;;;;;;;;;5071312;28;20452;-64
2021/06/16 09:45:53;;;;;;;0.20;0.20;;;;;;;;;;5071069;28;20414;-64
2021/06/16 09:48:27;;;;;;;0.10;0.10;;;;;;;;;;5071447;28;20506;-63
2021/06/16 09:51:08;;;;;;;0.20;0.20;;;;;;;;;;5071400;28;21068;-64
2021/06/16 09:53:34;;;;;;;0.20;0.20;;;;;;;;;;5070405;28;20896;-63
2021/06/16 09:56:32;;;;;;;0.17;0.17;;;;;;;;;;5071529;28;20912;-63
2021/06/16 09:58:58;;;;;;;0.20;0.20;;;;;;;;;;5062710;28;20939;-63
2021/06/16 10:01:42;;;;;;;0.10;0.10;;;;;;;;;;5071197;28;20410;-64
2021/06/16 10:04:08;;;;;;;0.20;0.20;;;;;;;;;;5071056;28;20421;-64
2021/06/16 10:06:34;;;;;;;0.17;0.17;;;;;;;;;;5070973;28;20463;-64
2021/06/16 10:09:06;;;;;;;0.10;0.10;;;;;;;;;;5070914;28;20489;-62
2021/06/16 10:11:34;;;;;;;0.20;0.20;;;;;;;;;;5082656;28;20451;-64
2021/06/16 10:14:00;;;;;;;0.20;0.20;;;;;;;;;;5090683;28;20421;-64
2021/06/16 10:16:27;;;;;;;0.10;0.10;;;;;;;;;;5090924;28;20412;-64
2021/06/16 10:18:53;;;;;;;0.10;0.10;;;;;;;;;;5090546;28;20460;-64
2021/06/16 10:21:21;;;;;;;0.20;0.20;;;;;;;;;;5091014;28;20412;-64
2021/06/16 10:23:47;;;;;;;0.10;0.10;;;;;;;;;;5090909;28;20424;-64
2021/06/16 10:26:25;;;;;;;0.20;0.20;;;;;;;;;;5090781;28;20451;-63
2021/06/16 10:28:59;;;;;;;0.20;0.20;;;;;;;;;;5090728;28;20882;-62
2021/06/16 10:31:33;;;;;;;0.20;0.20;;;;;;;;;;5090771;28;20888;-64
2021/06/16 10:33:59;;;;;;;0.20;0.20;;;;;;;;;;5090709;28;20454;-63
2021/06/16 10:36:25;;;;;;;0.20;0.20;;;;;;;;;;5090794;28;20409;-63
2021/06/16 10:38:57;;;;;;;0.10;0.10;;;;;;;;;;5090560;28;20451;-65
2021/06/16 10:41:44;;;;;;;0.20;0.20;;;;;;;;;;5090431;28;20461;-64
2021/06/16 10:44:11;;;;;;;0.20;0.20;;;;;;;;;;5080401;28;20458;-64
2021/06/16 10:46:56;;;;;;;0.10;0.10;;;;;;;;;;5090835;28;20488;-64
2021/06/16 10:49:47;;;;;;;0.20;0.20;;;;;;;;;;5090447;28;20409;-64
2021/06/16 10:52:17;;;;;;;0.20;0.20;;;;;;;;;;5090891;28;20950;-64
2021/06/16 10:54:56;;;;;;;0.20;0.20;;;;;;;;;;5090748;28;20476;-64
2021/06/16 10:57:22;;;;;;;0.20;0.20;;;;;;;;;;5090836;28;20420;-64
2021/06/16 10:59:49;;;;;;;0.10;0.10;;;;;;;;;;5091037;28;20435;-64
2021/06/16 11:02:39;;;;;;;0.20;0.20;;;;;;;;;;5090882;28;20780;-64
2021/06/16 11:05:26;;;;;;;0.10;0.10;;;;;;;;;;5084942;28;20500;-64
2021/06/16 11:07:52;;;;;;;0.20;0.20;;;;;;;;;;5094414;28;20470;-64
2021/06/16 11:10:18;;;;;;;0.20;0.20;;;;;;;;;;5094371;28;20396;-64
2021/06/16 11:12:45;;;;;;;0.20;0.20;;;;;;;;;;5094604;28;20412;-65
2021/06/16 11:15:12;;;;;;;0.20;0.20;;;;;;;;;;5094346;28;20400;-63
2021/06/16 11:17:39;;;;;;;0.10;0.10;;;;;;;;;;5093978;28;20773;-63
2021/06/16 11:20:10;;;;;;;0.20;0.20;;;;;;;;;;5094391;28;20818;-63
2021/06/16 11:22:39;;;;;;;0.20;0.20;;;;;;;;;;5094044;28;20400;-64
2021/06/16 11:25:06;;;;;;;0.20;0.20;;;;;;;;;;5094215;28;20407;-64
2021/06/16 11:27:56;;;;;;;0.20;0.20;;;;;;;;;;5093826;28;20456;-64
2021/06/16 11:30:35;;;;;;;0.20;0.20;;;;;;;;;;5075767;28;20428;-64
2021/06/16 11:33:13;;;;;;;0.20;0.20;;;;;;;;;;5116224;22;20436;-64
2021/06/16 11:35:40;;;;;;;0.17;0.17;;;;;;;;;;5032070;28;20910;-64
2021/06/16 11:38:07;;;;;;;0.20;0.20;;;;;;;;;;5033838;28;20924;-67
2021/06/16 11:40:33;;;;;;;0.20;0.20;;;;;;;;;;5033734;28;20801;-65
2021/06/16 11:42:59;;;;;;;0.20;0.20;;;;;;;;;;5032444;28;20411;-67
2021/06/16 11:45:26;;;;;;;0.20;0.20;;;;;;;;;;5013956;28;20420;-66
2021/06/16 11:47:54;;;;;;;0.20;0.20;;;;;;;;;;5013841;28;20981;-67
2021/06/16 11:50:46;;;;;;;0.20;0.20;;;;;;;;;;5013978;28;20454;-66
2021/06/16 11:53:12;;;;;;;0.20;0.20;;;;;;;;;;5012778;28;20447;-67
2021/06/16 11:55:48;;;;;;;0.20;0.20;;;;;;;;;;5013458;28;20425;-67
2021/06/16 11:58:20;;;;;;;0.20;0.20;;;;;;;;;;5013734;28;20409;-67
2021/06/16 12:00:46;;;;;;;0.20;0.20;;;;;;;;;;5013734;28;20402;-66
2021/06/16 12:03:15;;;;;;;0.20;0.20;;;;;;;;;;5013793;28;21037;-65
2021/06/16 12:05:42;;;;;;;0.20;0.20;;;;;;;;;;5029535;28;20432;-66
2021/06/16 12:08:08;;;;;;;0.20;0.20;;;;;;;;;;5033296;28;20459;-67
2021/06/16 12:10:34;;;;;;;0.20;0.20;;;;;;;;;;5032910;28;20413;-67
2021/06/16 12:13:03;;;;;;;0.20;0.20;;;;;;;;;;5032901;28;20416;-67
2021/06/16 12:15:33;;;;;;;0.20;0.20;;;;;;;;;;5032508;28;20443;-66
2021/06/16 12:18:00;;;;;;;0.20;0.20;;;;;;;;;;5037936;28;20476;-67
2021/06/16 12:20:28;;;;;;;0.20;0.20;;;;;;;;;;5032760;28;20503;-64
2021/06/16 12:22:54;;;;;;;0.20;0.20;;;;;;;;;;5032889;28;20798;-65
2021/06/16 12:25:24;;;;;;;0.20;0.20;;;;;;;;;;5032988;28;20407;-66
2021/06/16 12:27:51;;;;;;;0.20;0.20;;;;;;;;;;5032542;28;20950;-66
2021/06/16 12:30:21;;;;;;;0.20;0.20;;;;;;;;;;5032713;28;20418;-66
2021/06/16 12:33:11;;;;;;;0.20;0.20;;;;;;;;;;5032885;28;20510;-66
2021/06/16 12:35:42;;;;;;;0.20;0.20;;;;;;;;;;5032612;28;20509;-66
2021/06/16 12:38:08;;;;;;;0.20;0.20;;;;;;;;;;5032902;28;20398;-66
2021/06/16 12:40:36;;;;;;;0.20;0.20;;;;;;;;;;5032663;28;20822;-66
2021/06/16 12:43:02;;;;;;;0.20;0.20;;;;;;;;;;5032659;28;20909;-67
2021/06/16 12:45:40;;;;;;;0.20;0.20;;;;;;;;;;5032722;28;20464;-66
2021/06/16 12:48:42;;;;;;;0.20;0.20;;;;;;;;;;5032387;28;20454;-65
2021/06/16 12:51:08;;;;;;;0.20;0.20;;;;;;;;;;4971512;28;20992;-65
2021/06/16 12:53:41;;;;;;;0.20;0.20;;;;;;;;;;5020040;28;20469;-66
2021/06/16 12:56:07;;;;;;;0.20;0.20;;;;;;;;;;5032408;28;20486;-67
2021/06/16 12:58:45;;;;;;;0.20;0.20;;;;;;;;;;5031736;28;20426;-66
2021/06/16 13:01:20;;;;;;;0.20;0.20;;;;;;;;;;5032213;28;20492;-65
2021/06/16 13:03:50;;;;;;;0.20;0.20;;;;;;;;;;5032152;28;20793;-66
2021/06/16 13:06:17;;;;;;;0.20;0.20;;;;;;;;;;5032040;28;20449;-67
2021/06/16 13:08:44;;;;;;;0.20;0.20;;;;;;;;;;5031634;28;20411;-66
2021/06/16 13:11:26;;;;;;;0.20;0.20;;;;;;;;;;5031998;28;20410;-65
2021/06/16 13:14:13;;;;;;;0.20;0.20;;;;;;;;;;5032145;28;20431;-65
2021/06/16 13:16:39;;;;;;;0.20;0.20;;;;;;;;;;5031911;28;20784;-66
2021/06/16 13:19:06;;;;;;;0.20;0.20;;;;;;;;;;5031765;28;20505;-66
2021/06/16 13:21:32;;;;;;;0.20;0.20;;;;;;;;;;5031923;28;20422;-66
2021/06/16 13:23:58;;;;;;;0.20;0.20;;;;;;;;;;5031737;28;20434;-65
2021/06/16 13:26:24;;;;;;;0.20;0.20;;;;;;;;;;5031907;28;20458;-65
2021/06/16 13:28:57;;;;;;;0.20;0.20;;;;;;;;;;5031374;28;20444;-64
2021/06/16 13:31:24;;;;;;;0.20;0.20;;;;;;;;;;5031485;28;20447;-65
2021/06/16 13:33:51;;;;;;;0.20;0.20;;;;;;;;;;5031417;28;20446;-65
2021/06/16 13:36:21;;;;;;;0.20;0.20;;;;;;;;;;5031957;28;20930;-65
2021/06/16 13:38:51;;;;;;;0.20;0.20;;;;;;;;;;5031356;28;21033;-65
2021/06/16 13:41:18;;;;;;;0.20;0.20;;;;;;;;;;5031784;28;20418;-65
2021/06/16 13:43:44;;;;;;;0.20;0.20;;;;;;;;;;5031305;28;20435;-63
2021/06/16 13:46:10;;;;;;;0.20;0.20;;;;;;;;;;5031506;28;20464;-65
2021/06/16 13:48:36;;;;;;;0.20;0.20;;;;;;;;;;5031562;28;20443;-64
2021/06/16 13:51:03;;;;;;;0.20;0.20;;;;;;;;;;5033238;28;20405;-64
2021/06/16 13:53:29;;;;;;;0.20;0.20;;;;;;;;;;5041987;28;20889;-64
2021/06/16 13:55:55;;;;;;;0.20;0.20;;;;;;;;;;5040746;28;20490;-64
2021/06/16 13:58:21;;;;;;;0.20;0.20;;;;;;;;;;5040033;28;20400;-64
2021/06/16 14:00:47;;;;;;;0.20;0.20;;;;;;;;;;5033175;28;20789;-67
2021/06/16 14:03:13;;;;;;;0.20;0.20;;;;;;;;;;5032109;28;20436;-64
2021/06/16 14:05:39;;;;;;;0.20;0.20;;;;;;;;;;5031383;28;20513;-64
2021/06/16 14:08:06;;;;;;;0.20;0.20;;;;;;;;;;5031033;28;20549;-64
2021/06/16 14:10:32;;;;;;;0.20;0.20;;;;;;;;;;5031303;28;20391;-64
2021/06/16 14:13:00;;;;;;;0.20;0.20;;;;;;;;;;5031109;28;20491;-64
2021/06/16 14:15:26;;;;;;;0.20;0.20;;;;;;;;;;5031184;28;20405;-65
2021/06/16 14:17:52;;;;;;;0.20;0.20;;;;;;;;;;5031189;28;20512;-64
2021/06/16 14:20:18;;;;;;;0.20;0.20;;;;;;;;;;5013456;28;20421;-65
2021/06/16 14:22:45;;;;;;;0.20;0.20;;;;;;;;;;5031156;28;20925;-65
2021/06/16 14:25:12;;;;;;;0.20;0.20;;;;;;;;;;5031265;28;20475;-64
2021/06/16 14:27:38;;;;;;;0.20;0.20;;;;;;;;;;5030809;28;20520;-66
2021/06/16 14:30:11;;;;;;;0.20;0.20;;;;;;;;;;5030925;28;20423;-65
2021/06/16 14:32:38;;;;;;;0.20;0.20;;;;;;;;;;5031022;28;20409;-66
2021/06/16 14:35:07;;;;;;;0.20;0.20;;;;;;;;;;5030647;28;20426;-65
2021/06/16 14:37:33;;;;;;;0.20;0.20;;;;;;;;;;5030931;28;20390;-65
2021/06/16 14:39:59;;;;;;;0.20;0.20;;;;;;;;;;5032667;28;20413;-65
2021/06/16 14:42:26;;;;;;;0.20;0.20;;;;;;;;;;5034794;28;20486;-65
2021/06/16 14:44:52;;;;;;;0.20;0.20;;;;;;;;;;5035062;28;20497;-65
2021/06/16 14:47:20;;;;;;;0.20;0.20;;;;;;;;;;5034885;28;20545;-63